sensor_id;sensor_type;location;lat;lon;timestamp;temperature;humidity
1379;DHT22;683;48.738;9.226;2023-01-23T00:01:29;-0.20;99.90
1379;DHT22;683;48.738;9.226;2023-01-23T00:04:12;-0.20;99.90
1379;DHT22;683;48.738;9.226;2023-01-23T00:06:40;-0.30;99.90
1379;DHT22;683;48.738;9.226;2023-01-23T00:09:07;-0.30;99.90
1379;DHT22;683;48.738;9.226;2023-01-23T00:11:35;-0.30;99.90
1379;DHT22;683;48.738;9.226;2023-01-23T00:14:09;-0.30;99.90
1379;DHT22;683;48.738;9.226;2023-01-23T00:16:41;-0.40;99.90
1379;DHT22;683;48.738;9.226;2023-01-23T00:19:09;-0.40;99.90
1379;DHT22;683;48.738;9.226;2023-01-23T00:21:36;-0.40;99.90
1379;DHT22;683;48.738;9.226;2023-01-23T00:24:05;-0.40;99.90
1379;DHT22;683;48.738;9.226;2023-01-23T00:26:33;-0.40;99.90
1379;DHT22;683;48.738;9.226;2023-01-23T00:29:01;-0.40;99.90
1379;DHT22;683;48.738;9.226;2023-01-23T00:31:31;-0.40;99.90
1379;DHT22;683;48.738;9.226;2023-01-23T00:34:02;-0.40;99.90
1379;DHT22;683;48.738;9.226;2023-01-23T00:36:32;-0.40;99.90
1379;DHT22;683;48.738;9.226;2023-01-23T00:39:00;-0.40;99.90
1379;DHT22;683;48.738;9.226;2023-01-23T00:41:27;-0.40;99.90
1379;DHT22;683;48.738;9.226;2023-01-23T00:43:55;-0.40;99.90
1379;DHT22;683;48.738;9.226;2023-01-23T00:46:22;-0.30;99.90
1379;DHT22;683;48.738;9.226;2023-01-23T00:48:50;-0.40;99.90
1379;DHT22;683;48.738;9.226;2023-01-23T00:51:19;-0.40;99.90
1379;DHT22;683;48.738;9.226;2023-01-23T00:53:47;-0.40;99.90
1379;DHT22;683;48.738;9.226;2023-01-23T00:56:14;-0.40;99.90
1379;DHT22;683;48.738;9.226;2023-01-23T00:58:42;-0.40;99.90
1379;DHT22;683;48.738;9.226;2023-01-23T01:01:10;-0.40;99.90
1379;DHT22;683;48.738;9.226;2023-01-23T01:03:38;-0.40;99.90
1379;DHT22;683;48.738;9.226;2023-01-23T01:06:07;-0.40;99.90
1379;DHT22;683;48.738;9.226;2023-01-23T01:08:36;-0.40;99.90
1379;DHT22;683;48.738;9.226;2023-01-23T01:11:04;-0.40;99.90
1379;DHT22;683;48.738;9.226;2023-01-23T01:13:32;-0.40;99.90
1379;DHT22;683;48.738;9.226;2023-01-23T01:15:59;-0.40;99.90
1379;DHT22;683;48.738;9.226;2023-01-23T01:18:28;-0.40;99.90
1379;DHT22;683;48.738;9.226;2023-01-23T01:20:56;-0.40;99.90
1379;DHT22;683;48.738;9.226;2023-01-23T01:23:24;-0.40;99.90
1379;DHT22;683;48.738;9.226;2023-01-23T01:25:57;-0.30;99.90
1379;DHT22;683;48.738;9.226;2023-01-23T01:28:25;-0.40;99.90
1379;DHT22;683;48.738;9.226;2023-01-23T01:30:55;-0.30;99.90
1379;DHT22;683;48.738;9.226;2023-01-23T01:33:23;-0.30;99.90
1379;DHT22;683;48.738;9.226;2023-01-23T01:35:51;-0.30;99.90
1379;DHT22;683;48.738;9.226;2023-01-23T01:38:21;-0.30;99.90
1379;DHT22;683;48.738;9.226;2023-01-23T01:40:49;-0.20;99.90
1379;DHT22;683;48.738;9.226;2023-01-23T01:43:20;-0.20;99.90
1379;DHT22;683;48.738;9.226;2023-01-23T01:46:10;-0.20;99.90
1379;DHT22;683;48.738;9.226;2023-01-23T01:48:42;-0.20;99.90
1379;DHT22;683;48.738;9.226;2023-01-23T01:51:23;-0.20;99.90
1379;DHT22;683;48.738;9.226;2023-01-23T01:53:58;-0.20;99.90
1379;DHT22;683;48.738;9.226;2023-01-23T01:56:27;-0.20;99.90
1379;DHT22;683;48.738;9.226;2023-01-23T01:58:59;-0.10;99.90
1379;DHT22;683;48.738;9.226;2023-01-23T02:01:27;-0.10;99.90
1379;DHT22;683;48.738;9.226;2023-01-23T02:03:56;-0.10;99.90
1379;DHT22;683;48.738;9.226;2023-01-23T02:06:24;-0.10;99.90
1379;DHT22;683;48.738;9.226;2023-01-23T02:08:57;-0.10;99.90
1379;DHT22;683;48.738;9.226;2023-01-23T02:11:27;-0.10;99.90
1379;DHT22;683;48.738;9.226;2023-01-23T02:13:55;0.00;99.90
1379;DHT22;683;48.738;9.226;2023-01-23T02:16:26;0.00;99.90
1379;DHT22;683;48.738;9.226;2023-01-23T02:18:58;0.00;99.90
1379;DHT22;683;48.738;9.226;2023-01-23T02:21:27;0.00;99.90
1379;DHT22;683;48.738;9.226;2023-01-23T02:24:08;0.00;99.90
1379;DHT22;683;48.738;9.226;2023-01-23T02:26:40;0.00;99.90
1379;DHT22;683;48.738;9.226;2023-01-23T02:29:09;0.00;99.90
1379;DHT22;683;48.738;9.226;2023-01-23T02:31:47;0.00;99.90
1379;DHT22;683;48.738;9.226;2023-01-23T02:34:19;0.00;99.90
1379;DHT22;683;48.738;9.226;2023-01-23T02:36:48;0.00;99.90
1379;DHT22;683;48.738;9.226;2023-01-23T02:39:17;0.00;99.90
1379;DHT22;683;48.738;9.226;2023-01-23T02:41:52;0.00;99.90
1379;DHT22;683;48.738;9.226;2023-01-23T02:44:26;0.00;99.90
1379;DHT22;683;48.738;9.226;2023-01-23T02:46:59;0.00;99.90
1379;DHT22;683;48.738;9.226;2023-01-23T02:49:28;0.00;99.90
1379;DHT22;683;48.738;9.226;2023-01-23T02:51:56;0.00;99.90
1379;DHT22;683;48.738;9.226;2023-01-23T02:54:24;0.00;99.90
1379;DHT22;683;48.738;9.226;2023-01-23T02:56:53;-0.10;99.90
1379;DHT22;683;48.738;9.226;2023-01-23T02:59:23;0.00;99.90
1379;DHT22;683;48.738;9.226;2023-01-23T03:02:08;0.00;99.90
1379;DHT22;683;48.738;9.226;2023-01-23T03:04:36;0.00;99.90
1379;DHT22;683;48.738;9.226;2023-01-23T03:07:03;0.00;99.90
1379;DHT22;683;48.738;9.226;2023-01-23T03:09:31;0.10;99.90
1379;DHT22;683;48.738;9.226;2023-01-23T03:11:59;0.10;99.90
1379;DHT22;683;48.738;9.226;2023-01-23T03:14:28;0.00;99.90
1379;DHT22;683;48.738;9.226;2023-01-23T03:16:58;0.00;99.90
1379;DHT22;683;48.738;9.226;2023-01-23T03:19:30;0.00;99.90
1379;DHT22;683;48.738;9.226;2023-01-23T03:21:58;0.00;99.90
1379;DHT22;683;48.738;9.226;2023-01-23T03:24:25;0.00;99.90
1379;DHT22;683;48.738;9.226;2023-01-23T03:26:53;-0.10;99.90
1379;DHT22;683;48.738;9.226;2023-01-23T03:29:25;-0.10;99.90
1379;DHT22;683;48.738;9.226;2023-01-23T03:32:13;-0.10;99.90
1379;DHT22;683;48.738;9.226;2023-01-23T03:34:41;-0.20;99.90
1379;DHT22;683;48.738;9.226;2023-01-23T03:37:10;-0.20;99.90
1379;DHT22;683;48.738;9.226;2023-01-23T03:39:39;-0.20;99.90
1379;DHT22;683;48.738;9.226;2023-01-23T03:42:24;-0.20;99.90
1379;DHT22;683;48.738;9.226;2023-01-23T03:44:56;-0.20;99.90
1379;DHT22;683;48.738;9.226;2023-01-23T03:47:27;-0.20;99.90
1379;DHT22;683;48.738;9.226;2023-01-23T03:49:55;-0.20;99.90
1379;DHT22;683;48.738;9.226;2023-01-23T03:52:23;-0.20;99.90
1379;DHT22;683;48.738;9.226;2023-01-23T03:54:50;-0.20;99.90
1379;DHT22;683;48.738;9.226;2023-01-23T03:57:18;-0.20;99.90
1379;DHT22;683;48.738;9.226;2023-01-23T04:00:06;-0.20;99.90
1379;DHT22;683;48.738;9.226;2023-01-23T04:02:43;-0.10;99.90
1379;DHT22;683;48.738;9.226;2023-01-23T04:05:13;-0.10;99.90
1379;DHT22;683;48.738;9.226;2023-01-23T04:07:40;-0.10;99.90
1379;DHT22;683;48.738;9.226;2023-01-23T04:10:08;-0.10;99.90
1379;DHT22;683;48.738;9.226;2023-01-23T04:12:36;-0.10;99.90
1379;DHT22;683;48.738;9.226;2023-01-23T04:15:07;-0.10;99.90
1379;DHT22;683;48.738;9.226;2023-01-23T04:17:35;0.00;99.90
1379;DHT22;683;48.738;9.226;2023-01-23T04:20:03;0.00;99.90
1379;DHT22;683;48.738;9.226;2023-01-23T04:22:31;0.00;99.90
1379;DHT22;683;48.738;9.226;2023-01-23T04:24:58;0.00;99.90
1379;DHT22;683;48.738;9.226;2023-01-23T04:27:26;0.00;99.90
1379;DHT22;683;48.738;9.226;2023-01-23T04:29:55;0.10;99.90
1379;DHT22;683;48.738;9.226;2023-01-23T04:32:25;0.10;99.90
1379;DHT22;683;48.738;9.226;2023-01-23T04:34:52;0.10;99.90
1379;DHT22;683;48.738;9.226;2023-01-23T04:37:19;0.10;99.90
1379;DHT22;683;48.738;9.226;2023-01-23T04:39:47;0.10;99.90
1379;DHT22;683;48.738;9.226;2023-01-23T04:42:14;0.10;99.90
1379;DHT22;683;48.738;9.226;2023-01-23T04:45:11;0.10;99.90
1379;DHT22;683;48.738;9.226;2023-01-23T04:48:09;0.10;99.90
1379;DHT22;683;48.738;9.226;2023-01-23T04:50:37;0.10;99.90
1379;DHT22;683;48.738;9.226;2023-01-23T04:53:05;0.10;99.90
1379;DHT22;683;48.738;9.226;2023-01-23T04:55:33;0.00;99.90
1379;DHT22;683;48.738;9.226;2023-01-23T04:58:03;0.00;99.90
1379;DHT22;683;48.738;9.226;2023-01-23T05:00:31;0.10;99.90
1379;DHT22;683;48.738;9.226;2023-01-23T05:03:00;0.10;99.90
1379;DHT22;683;48.738;9.226;2023-01-23T05:05:31;0.10;99.90
1379;DHT22;683;48.738;9.226;2023-01-23T05:08:00;0.10;99.90
1379;DHT22;683;48.738;9.226;2023-01-23T05:10:28;0.10;99.90
1379;DHT22;683;48.738;9.226;2023-01-23T05:13:00;0.10;99.90
1379;DHT22;683;48.738;9.226;2023-01-23T05:15:27;0.10;99.90
1379;DHT22;683;48.738;9.226;2023-01-23T05:17:55;0.10;99.90
1379;DHT22;683;48.738;9.226;2023-01-23T05:20:22;0.10;99.90
1379;DHT22;683;48.738;9.226;2023-01-23T05:22:51;0.10;99.90
1379;DHT22;683;48.738;9.226;2023-01-23T05:25:27;0.10;99.90
1379;DHT22;683;48.738;9.226;2023-01-23T05:27:56;0.10;99.90
1379;DHT22;683;48.738;9.226;2023-01-23T05:30:25;0.10;99.90
1379;DHT22;683;48.738;9.226;2023-01-23T05:33:04;0.10;99.90
1379;DHT22;683;48.738;9.226;2023-01-23T05:35:31;0.00;99.90
1379;DHT22;683;48.738;9.226;2023-01-23T05:38:00;0.00;99.90
1379;DHT22;683;48.738;9.226;2023-01-23T05:40:28;0.00;99.90
1379;DHT22;683;48.738;9.226;2023-01-23T05:43:14;0.00;99.90
1379;DHT22;683;48.738;9.226;2023-01-23T05:46:00;0.00;99.90
1379;DHT22;683;48.738;9.226;2023-01-23T05:48:38;0.00;99.90
1379;DHT22;683;48.738;9.226;2023-01-23T05:51:09;0.00;99.90
1379;DHT22;683;48.738;9.226;2023-01-23T05:53:38;0.00;99.90
1379;DHT22;683;48.738;9.226;2023-01-23T05:56:06;0.00;99.90
1379;DHT22;683;48.738;9.226;2023-01-23T05:58:41;0.00;99.90
1379;DHT22;683;48.738;9.226;2023-01-23T06:01:35;0.00;99.90
1379;DHT22;683;48.738;9.226;2023-01-23T06:04:21;0.00;99.90
1379;DHT22;683;48.738;9.226;2023-01-23T06:07:13;0.00;99.90
1379;DHT22;683;48.738;9.226;2023-01-23T06:09:42;0.00;99.90
1379;DHT22;683;48.738;9.226;2023-01-23T06:12:10;0.00;99.90
1379;DHT22;683;48.738;9.226;2023-01-23T06:14:38;0.00;99.90
1379;DHT22;683;48.738;9.226;2023-01-23T06:17:05;0.00;99.90
1379;DHT22;683;48.738;9.226;2023-01-23T06:19:33;0.00;99.90
1379;DHT22;683;48.738;9.226;2023-01-23T06:22:01;-0.10;99.90
1379;DHT22;683;48.738;9.226;2023-01-23T06:24:36;-0.10;99.90
1379;DHT22;683;48.738;9.226;2023-01-23T06:27:05;-0.10;99.90
1379;DHT22;683;48.738;9.226;2023-01-23T06:29:35;-0.10;99.90
1379;DHT22;683;48.738;9.226;2023-01-23T06:32:03;-0.10;99.90
1379;DHT22;683;48.738;9.226;2023-01-23T06:34:31;-0.10;99.90
1379;DHT22;683;48.738;9.226;2023-01-23T06:37:01;-0.10;99.90
1379;DHT22;683;48.738;9.226;2023-01-23T06:39:29;-0.20;99.90
1379;DHT22;683;48.738;9.226;2023-01-23T06:41:57;-0.20;99.90
1379;DHT22;683;48.738;9.226;2023-01-23T06:44:26;-0.20;99.90
1379;DHT22;683;48.738;9.226;2023-01-23T06:46:54;-0.20;99.90
1379;DHT22;683;48.738;9.226;2023-01-23T06:49:23;-0.30;99.90
1379;DHT22;683;48.738;9.226;2023-01-23T06:51:52;-0.30;99.90
1379;DHT22;683;48.738;9.226;2023-01-23T06:54:20;-0.30;99.90
1379;DHT22;683;48.738;9.226;2023-01-23T06:56:48;-0.30;99.90
1379;DHT22;683;48.738;9.226;2023-01-23T06:59:17;-0.30;99.90
1379;DHT22;683;48.738;9.226;2023-01-23T07:01:47;-0.20;99.90
1379;DHT22;683;48.738;9.226;2023-01-23T07:04:37;-0.20;99.90
1379;DHT22;683;48.738;9.226;2023-01-23T07:07:04;-0.20;99.90
1379;DHT22;683;48.738;9.226;2023-01-23T07:09:32;-0.20;99.90
1379;DHT22;683;48.738;9.226;2023-01-23T07:12:06;-0.20;99.90
1379;DHT22;683;48.738;9.226;2023-01-23T07:14:35;-0.20;99.90
1379;DHT22;683;48.738;9.226;2023-01-23T07:17:04;-0.20;99.90
1379;DHT22;683;48.738;9.226;2023-01-23T07:19:31;-0.20;99.90
1379;DHT22;683;48.738;9.226;2023-01-23T07:22:00;-0.10;99.90
1379;DHT22;683;48.738;9.226;2023-01-23T07:24:27;-0.10;99.90
1379;DHT22;683;48.738;9.226;2023-01-23T07:26:57;-0.10;99.90
1379;DHT22;683;48.738;9.226;2023-01-23T07:29:24;-0.10;99.90
1379;DHT22;683;48.738;9.226;2023-01-23T07:31:52;-0.10;99.90
1379;DHT22;683;48.738;9.226;2023-01-23T07:34:21;-0.10;99.90
1379;DHT22;683;48.738;9.226;2023-01-23T07:36:48;0.00;99.90
1379;DHT22;683;48.738;9.226;2023-01-23T07:39:15;0.00;99.90
1379;DHT22;683;48.738;9.226;2023-01-23T07:41:43;0.00;99.90
1379;DHT22;683;48.738;9.226;2023-01-23T07:44:15;0.00;99.90
1379;DHT22;683;48.738;9.226;2023-01-23T07:46:43;0.00;99.90
1379;DHT22;683;48.738;9.226;2023-01-23T07:49:10;0.00;99.90
1379;DHT22;683;48.738;9.226;2023-01-23T07:51:39;0.00;99.90
1379;DHT22;683;48.738;9.226;2023-01-23T07:54:07;0.00;99.90
1379;DHT22;683;48.738;9.226;2023-01-23T07:56:35;0.10;99.90
1379;DHT22;683;48.738;9.226;2023-01-23T07:59:05;0.10;99.90
1379;DHT22;683;48.738;9.226;2023-01-23T08:01:33;0.20;99.90
1379;DHT22;683;48.738;9.226;2023-01-23T08:04:00;0.20;99.90
1379;DHT22;683;48.738;9.226;2023-01-23T08:06:31;0.20;99.90
1379;DHT22;683;48.738;9.226;2023-01-23T08:09:01;0.20;99.90
1379;DHT22;683;48.738;9.226;2023-01-23T08:11:29;0.20;99.90
1379;DHT22;683;48.738;9.226;2023-01-23T08:13:56;0.20;99.90
1379;DHT22;683;48.738;9.226;2023-01-23T08:16:30;0.30;99.90
1379;DHT22;683;48.738;9.226;2023-01-23T08:18:57;0.30;99.90
1379;DHT22;683;48.738;9.226;2023-01-23T08:21:34;0.30;99.90
1379;DHT22;683;48.738;9.226;2023-01-23T08:24:04;0.30;99.90
1379;DHT22;683;48.738;9.226;2023-01-23T08:26:32;0.30;99.90
1379;DHT22;683;48.738;9.226;2023-01-23T08:28:59;0.30;99.90
1379;DHT22;683;48.738;9.226;2023-01-23T08:31:27;0.30;99.90
1379;DHT22;683;48.738;9.226;2023-01-23T08:33:55;0.30;99.90
1379;DHT22;683;48.738;9.226;2023-01-23T08:36:24;0.40;99.90
1379;DHT22;683;48.738;9.226;2023-01-23T08:38:52;0.30;99.90
1379;DHT22;683;48.738;9.226;2023-01-23T08:41:23;0.30;99.90
1379;DHT22;683;48.738;9.226;2023-01-23T08:43:53;0.40;99.90
1379;DHT22;683;48.738;9.226;2023-01-23T08:46:22;0.40;99.90
1379;DHT22;683;48.738;9.226;2023-01-23T08:48:50;0.40;99.90
1379;DHT22;683;48.738;9.226;2023-01-23T08:51:25;0.40;99.90
1379;DHT22;683;48.738;9.226;2023-01-23T08:53:56;0.40;99.90
1379;DHT22;683;48.738;9.226;2023-01-23T08:56:25;0.40;99.90
1379;DHT22;683;48.738;9.226;2023-01-23T08:58:53;0.40;99.90
1379;DHT22;683;48.738;9.226;2023-01-23T09:01:22;0.40;99.90
1379;DHT22;683;48.738;9.226;2023-01-23T09:03:50;0.40;99.90
1379;DHT22;683;48.738;9.226;2023-01-23T09:06:19;0.50;99.90
1379;DHT22;683;48.738;9.226;2023-01-23T09:13:13;0.70;99.90
1379;DHT22;683;48.738;9.226;2023-01-23T09:15:41;0.70;99.90
1379;DHT22;683;48.738;9.226;2023-01-23T09:18:09;0.60;99.90
1379;DHT22;683;48.738;9.226;2023-01-23T09:20:37;0.70;99.90
1379;DHT22;683;48.738;9.226;2023-01-23T09:23:04;0.80;99.90
1379;DHT22;683;48.738;9.226;2023-01-23T09:25:32;0.90;99.90
1379;DHT22;683;48.738;9.226;2023-01-23T09:28:00;0.90;99.90
1379;DHT22;683;48.738;9.226;2023-01-23T09:30:29;1.00;99.90
1379;DHT22;683;48.738;9.226;2023-01-23T09:32:56;1.00;99.90
1379;DHT22;683;48.738;9.226;2023-01-23T09:35:24;0.90;99.90
1379;DHT22;683;48.738;9.226;2023-01-23T09:37:52;0.90;99.90
1379;DHT22;683;48.738;9.226;2023-01-23T09:40:32;0.80;99.90
1379;DHT22;683;48.738;9.226;2023-01-23T09:43:08;0.90;99.90
1379;DHT22;683;48.738;9.226;2023-01-23T09:45:45;0.80;99.90
1379;DHT22;683;48.738;9.226;2023-01-23T09:48:21;0.80;99.90
1379;DHT22;683;48.738;9.226;2023-01-23T09:50:55;0.80;99.90
1379;DHT22;683;48.738;9.226;2023-01-23T09:53:27;0.80;99.90
1379;DHT22;683;48.738;9.226;2023-01-23T09:56:00;0.90;99.90
1379;DHT22;683;48.738;9.226;2023-01-23T09:58:38;0.90;99.90
1379;DHT22;683;48.738;9.226;2023-01-23T10:01:10;0.80;99.90
1379;DHT22;683;48.738;9.226;2023-01-23T10:03:52;0.80;99.90
1379;DHT22;683;48.738;9.226;2023-01-23T10:06:22;0.80;99.90
1379;DHT22;683;48.738;9.226;2023-01-23T10:09:00;0.90;99.90
1379;DHT22;683;48.738;9.226;2023-01-23T10:11:38;1.00;99.90
1379;DHT22;683;48.738;9.226;2023-01-23T10:14:24;1.20;99.90
1379;DHT22;683;48.738;9.226;2023-01-23T10:17:05;1.30;99.90
1379;DHT22;683;48.738;9.226;2023-01-23T10:19:39;1.30;99.90
1379;DHT22;683;48.738;9.226;2023-01-23T10:22:28;1.30;99.90
1379;DHT22;683;48.738;9.226;2023-01-23T10:25:06;1.40;99.90
1379;DHT22;683;48.738;9.226;2023-01-23T10:27:38;1.50;99.90
1379;DHT22;683;48.738;9.226;2023-01-23T10:30:17;1.50;99.90
1379;DHT22;683;48.738;9.226;2023-01-23T10:32:50;1.50;99.90
1379;DHT22;683;48.738;9.226;2023-01-23T10:35:26;1.60;99.90
1379;DHT22;683;48.738;9.226;2023-01-23T10:38:08;1.60;99.90
1379;DHT22;683;48.738;9.226;2023-01-23T10:40:38;1.50;99.90
1379;DHT22;683;48.738;9.226;2023-01-23T10:43:25;1.50;99.90
1379;DHT22;683;48.738;9.226;2023-01-23T10:45:53;1.40;99.90
1379;DHT22;683;48.738;9.226;2023-01-23T10:48:38;1.40;99.90
1379;DHT22;683;48.738;9.226;2023-01-23T10:51:41;1.50;99.90
1379;DHT22;683;48.738;9.226;2023-01-23T10:54:19;1.40;99.90
1379;DHT22;683;48.738;9.226;2023-01-23T10:56:52;1.40;99.90
1379;DHT22;683;48.738;9.226;2023-01-23T10:59:31;1.40;99.90
1379;DHT22;683;48.738;9.226;2023-01-23T11:02:08;1.40;99.90
1379;DHT22;683;48.738;9.226;2023-01-23T11:04:45;1.40;99.90
1379;DHT22;683;48.738;9.226;2023-01-23T11:07:15;1.30;99.90
1379;DHT22;683;48.738;9.226;2023-01-23T11:09:52;1.30;99.90
1379;DHT22;683;48.738;9.226;2023-01-23T11:12:22;1.40;99.90
1379;DHT22;683;48.738;9.226;2023-01-23T11:14:51;1.50;99.90
1379;DHT22;683;48.738;9.226;2023-01-23T11:17:21;1.50;99.90
1379;DHT22;683;48.738;9.226;2023-01-23T11:19:52;1.60;99.90
1379;DHT22;683;48.738;9.226;2023-01-23T11:22:26;1.80;99.90
1379;DHT22;683;48.738;9.226;2023-01-23T11:24:54;1.80;99.90
1379;DHT22;683;48.738;9.226;2023-01-23T11:27:24;1.90;99.90
1379;DHT22;683;48.738;9.226;2023-01-23T11:33:12;1.90;99.90
1379;DHT22;683;48.738;9.226;2023-01-23T11:35:59;1.90;99.90
1379;DHT22;683;48.738;9.226;2023-01-23T11:38:35;1.80;99.90
1379;DHT22;683;48.738;9.226;2023-01-23T11:41:18;1.80;99.90
1379;DHT22;683;48.738;9.226;2023-01-23T11:43:45;1.70;99.90
1379;DHT22;683;48.738;9.226;2023-01-23T11:46:26;1.70;99.90
1379;DHT22;683;48.738;9.226;2023-01-23T11:52:26;1.70;99.90
1379;DHT22;683;48.738;9.226;2023-01-23T11:55:17;1.70;99.90
1379;DHT22;683;48.738;9.226;2023-01-23T11:57:59;1.80;99.90
1379;DHT22;683;48.738;9.226;2023-01-23T12:00:33;1.80;99.90
1379;DHT22;683;48.738;9.226;2023-01-23T12:06:40;1.80;99.90
1379;DHT22;683;48.738;9.226;2023-01-23T12:09:13;1.80;99.90
1379;DHT22;683;48.738;9.226;2023-01-23T12:11:55;1.70;99.90
1379;DHT22;683;48.738;9.226;2023-01-23T12:14:28;1.70;99.90
1379;DHT22;683;48.738;9.226;2023-01-23T12:17:39;1.80;99.90
1379;DHT22;683;48.738;9.226;2023-01-23T12:20:24;1.80;99.90
1379;DHT22;683;48.738;9.226;2023-01-23T12:23:21;1.80;99.90
1379;DHT22;683;48.738;9.226;2023-01-23T12:26:06;2.00;99.90
1379;DHT22;683;48.738;9.226;2023-01-23T12:28:58;2.10;99.90
1379;DHT22;683;48.738;9.226;2023-01-23T12:31:44;2.10;99.90
1379;DHT22;683;48.738;9.226;2023-01-23T12:34:49;2.20;99.90
1379;DHT22;683;48.738;9.226;2023-01-23T12:37:34;2.30;99.90
1379;DHT22;683;48.738;9.226;2023-01-23T12:40:11;2.40;99.90
1379;DHT22;683;48.738;9.226;2023-01-23T12:42:49;2.50;99.90
1379;DHT22;683;48.738;9.226;2023-01-23T12:45:20;2.40;99.90
1379;DHT22;683;48.738;9.226;2023-01-23T12:47:54;2.40;99.90
1379;DHT22;683;48.738;9.226;2023-01-23T12:50:50;2.40;99.90
1379;DHT22;683;48.738;9.226;2023-01-23T12:53:23;2.30;99.90
1379;DHT22;683;48.738;9.226;2023-01-23T12:56:00;2.20;99.90
1379;DHT22;683;48.738;9.226;2023-01-23T12:58:36;2.20;99.90
1379;DHT22;683;48.738;9.226;2023-01-23T13:01:15;2.30;99.90
1379;DHT22;683;48.738;9.226;2023-01-23T13:04:19;2.40;99.90
1379;DHT22;683;48.738;9.226;2023-01-23T13:07:32;2.50;99.90
1379;DHT22;683;48.738;9.226;2023-01-23T13:10:35;2.70;99.90
1379;DHT22;683;48.738;9.226;2023-01-23T13:13:26;2.80;99.90
1379;DHT22;683;48.738;9.226;2023-01-23T13:16:10;2.90;99.90
1379;DHT22;683;48.738;9.226;2023-01-23T13:18:51;2.80;99.90
1379;DHT22;683;48.738;9.226;2023-01-23T13:21:36;2.90;99.90
1379;DHT22;683;48.738;9.226;2023-01-23T13:24:39;2.90;99.90
1379;DHT22;683;48.738;9.226;2023-01-23T13:27:46;2.80;99.90
1379;DHT22;683;48.738;9.226;2023-01-23T13:30:40;2.70;99.90
1379;DHT22;683;48.738;9.226;2023-01-23T13:36:40;2.60;99.90
1379;DHT22;683;48.738;9.226;2023-01-23T13:39:24;2.60;99.90
1379;DHT22;683;48.738;9.226;2023-01-23T13:46:01;2.80;99.90
1379;DHT22;683;48.738;9.226;2023-01-23T13:48:53;2.90;99.90
1379;DHT22;683;48.738;9.226;2023-01-23T13:51:43;3.00;99.90
1379;DHT22;683;48.738;9.226;2023-01-23T13:54:13;3.10;99.90
1379;DHT22;683;48.738;9.226;2023-01-23T13:57:00;3.00;99.90
1379;DHT22;683;48.738;9.226;2023-01-23T13:59:31;3.00;99.90
1379;DHT22;683;48.738;9.226;2023-01-23T14:02:16;2.90;99.90
1379;DHT22;683;48.738;9.226;2023-01-23T14:05:07;2.80;99.90
1379;DHT22;683;48.738;9.226;2023-01-23T14:07:43;2.70;99.90
1379;DHT22;683;48.738;9.226;2023-01-23T14:10:16;2.70;99.90
1379;DHT22;683;48.738;9.226;2023-01-23T14:12:44;2.70;99.90
1379;DHT22;683;48.738;9.226;2023-01-23T14:15:20;2.70;99.90
1379;DHT22;683;48.738;9.226;2023-01-23T14:18:14;2.70;99.90
1379;DHT22;683;48.738;9.226;2023-01-23T14:20:43;2.60;99.90
1379;DHT22;683;48.738;9.226;2023-01-23T14:23:27;2.50;99.90
1379;DHT22;683;48.738;9.226;2023-01-23T14:25:55;2.40;99.90
1379;DHT22;683;48.738;9.226;2023-01-23T14:28:23;2.40;99.90
1379;DHT22;683;48.738;9.226;2023-01-23T14:30:55;2.30;99.90
1379;DHT22;683;48.738;9.226;2023-01-23T14:33:23;2.30;99.90
1379;DHT22;683;48.738;9.226;2023-01-23T14:35:52;2.20;99.90
1379;DHT22;683;48.738;9.226;2023-01-23T14:38:27;2.20;99.90
1379;DHT22;683;48.738;9.226;2023-01-23T14:40:55;2.10;99.90
1379;DHT22;683;48.738;9.226;2023-01-23T14:43:25;2.10;99.90
1379;DHT22;683;48.738;9.226;2023-01-23T14:46:02;2.00;99.90
1379;DHT22;683;48.738;9.226;2023-01-23T14:48:33;2.10;99.90
1379;DHT22;683;48.738;9.226;2023-01-23T14:51:12;2.10;99.90
1379;DHT22;683;48.738;9.226;2023-01-23T14:53:58;2.10;99.90
1379;DHT22;683;48.738;9.226;2023-01-23T14:56:29;2.00;99.90
1379;DHT22;683;48.738;9.226;2023-01-23T14:59:00;1.90;99.90
1379;DHT22;683;48.738;9.226;2023-01-23T15:01:29;1.90;99.90
1379;DHT22;683;48.738;9.226;2023-01-23T15:04:03;1.90;99.90
1379;DHT22;683;48.738;9.226;2023-01-23T15:06:33;1.90;99.90
1379;DHT22;683;48.738;9.226;2023-01-23T15:09:12;1.90;99.90
1379;DHT22;683;48.738;9.226;2023-01-23T15:11:41;1.90;99.90
1379;DHT22;683;48.738;9.226;2023-01-23T15:14:21;1.80;99.90
1379;DHT22;683;48.738;9.226;2023-01-23T15:17:27;1.80;99.90
1379;DHT22;683;48.738;9.226;2023-01-23T15:19:54;1.80;99.90
1379;DHT22;683;48.738;9.226;2023-01-23T15:22:25;1.80;99.90
1379;DHT22;683;48.738;9.226;2023-01-23T18:33:26;1.40;99.90
1379;DHT22;683;48.738;9.226;2023-01-23T18:36:13;1.30;99.90
1379;DHT22;683;48.738;9.226;2023-01-23T18:38:58;1.30;99.90
1379;DHT22;683;48.738;9.226;2023-01-23T18:41:36;1.30;99.90
1379;DHT22;683;48.738;9.226;2023-01-23T18:44:15;1.30;99.90
1379;DHT22;683;48.738;9.226;2023-01-23T18:46:44;1.30;99.90
1379;DHT22;683;48.738;9.226;2023-01-23T18:49:17;1.30;99.90
1379;DHT22;683;48.738;9.226;2023-01-23T18:51:51;1.40;99.90
1379;DHT22;683;48.738;9.226;2023-01-23T18:54:27;1.30;99.90
1379;DHT22;683;48.738;9.226;2023-01-23T18:57:15;1.30;99.90
1379;DHT22;683;48.738;9.226;2023-01-23T18:59:48;1.30;99.90
1379;DHT22;683;48.738;9.226;2023-01-23T19:02:36;1.30;99.90
1379;DHT22;683;48.738;9.226;2023-01-23T19:05:21;1.30;99.90
1379;DHT22;683;48.738;9.226;2023-01-23T19:07:52;1.30;99.90
1379;DHT22;683;48.738;9.226;2023-01-23T19:10:21;1.30;99.90
1379;DHT22;683;48.738;9.226;2023-01-23T19:13:11;1.30;99.90
1379;DHT22;683;48.738;9.226;2023-01-23T19:15:47;1.30;99.90
1379;DHT22;683;48.738;9.226;2023-01-23T19:18:33;1.30;99.90
1379;DHT22;683;48.738;9.226;2023-01-23T19:21:13;1.30;99.90
1379;DHT22;683;48.738;9.226;2023-01-23T19:23:45;1.30;99.90
1379;DHT22;683;48.738;9.226;2023-01-23T19:26:16;1.30;99.90
1379;DHT22;683;48.738;9.226;2023-01-23T19:28:44;1.30;99.90
1379;DHT22;683;48.738;9.226;2023-01-23T19:31:19;1.30;99.90
1379;DHT22;683;48.738;9.226;2023-01-23T19:33:49;1.30;99.90
1379;DHT22;683;48.738;9.226;2023-01-23T19:36:19;1.30;99.90
1379;DHT22;683;48.738;9.226;2023-01-23T19:38:50;1.30;99.90
1379;DHT22;683;48.738;9.226;2023-01-23T19:41:32;1.30;99.90
1379;DHT22;683;48.738;9.226;2023-01-23T19:44:02;1.40;99.90
1379;DHT22;683;48.738;9.226;2023-01-23T19:46:32;1.40;99.90
1379;DHT22;683;48.738;9.226;2023-01-23T19:49:00;1.40;99.90
1379;DHT22;683;48.738;9.226;2023-01-23T19:51:36;1.40;99.90
1379;DHT22;683;48.738;9.226;2023-01-23T19:54:04;1.40;99.90
1379;DHT22;683;48.738;9.226;2023-01-23T19:56:34;1.50;99.90
1379;DHT22;683;48.738;9.226;2023-01-23T19:59:05;1.50;99.90
1379;DHT22;683;48.738;9.226;2023-01-23T20:01:34;1.60;99.90
1379;DHT22;683;48.738;9.226;2023-01-23T20:04:07;1.60;99.90
1379;DHT22;683;48.738;9.226;2023-01-23T20:06:42;1.60;99.90
1379;DHT22;683;48.738;9.226;2023-01-23T20:09:19;1.60;99.90
1379;DHT22;683;48.738;9.226;2023-01-23T20:11:49;1.70;99.90
1379;DHT22;683;48.738;9.226;2023-01-23T20:14:17;1.70;99.90
1379;DHT22;683;48.738;9.226;2023-01-23T20:16:44;1.70;99.90
1379;DHT22;683;48.738;9.226;2023-01-23T20:19:12;1.70;99.90
1379;DHT22;683;48.738;9.226;2023-01-23T20:21:41;1.70;99.90
1379;DHT22;683;48.738;9.226;2023-01-23T20:24:09;1.80;99.90
1379;DHT22;683;48.738;9.226;2023-01-23T20:26:40;1.80;99.90
1379;DHT22;683;48.738;9.226;2023-01-23T20:29:10;1.80;99.90
1379;DHT22;683;48.738;9.226;2023-01-23T20:31:38;1.90;99.90
1379;DHT22;683;48.738;9.226;2023-01-23T20:34:07;1.90;99.90
1379;DHT22;683;48.738;9.226;2023-01-23T20:36:34;1.90;99.90
1379;DHT22;683;48.738;9.226;2023-01-23T20:39:05;1.90;99.90
1379;DHT22;683;48.738;9.226;2023-01-23T20:41:33;1.90;99.90